Airfield :
LOGIN :

Register | Disclaimer

   EN    FR    IT 

 










Legend :    VFR   Marginal VFR   IFR   Intensive IFR   Very Intensive IFR
Visi :
Ceiling :
>= 8 km
>= 3000ft
5 to 8 km
1000 to 3000 ft
1500m to 5 km
500 to 1000 ft
800 to 1500m
200 to 500 ft
< 800m
< 200 ft
Symbols :   Thunderstorms  Fog  Heavy snow  Heavy precipitations  Wind > 20 kt
SIGMETs :     Misc.  Thunderstorms  Icing  Turbulence  Mountain Waves  Volcanic Ashes






- Airport Elevation : 788 ft
- IATA code : DCM


LFCK - Castres-Mazamet

CURRENT METAR :
  • 090730Z AUTO 31003KT 260V350 CAVOK 23/09 Q1021 NOSIG

EXPIRED METARs :
  • 090700Z AUTO VRB01KT CAVOK 22/10 Q1020 NOSIG
  • 090630Z AUTO 00000KT CAVOK 21/10 Q1020 NOSIG
  • 090600Z AUTO VRB02KT CAVOK 20/09 Q1020 NOSIG
  • 090530Z AUTO VRB02KT CAVOK 18/09 Q1020

TAF TAF LFCK
Valid from the 09 at 06:00 until the 09 at 15:00 UTC


090500Z 0906/0915 VRB03KT CAVOK
BECMG 0908/0910 28008KT



MET'MAP, your aeronautical weather chart ! - Copyright ORBIFLY December 2007 - Disclaimer

ORBIFLY MET'MAP TEAM :

Programming & Development : Alexandra Zaïnal
Original concept : Baudouin d'Aumeries
Technical & hardware support : Manuel Goepfert
Assistance : Marc-Olivier Méhu




SOURCES & CREDITS :

   NOAA